Accueil
METAR-TAF:

METAR-TAF

Aéroports :

Sukkur, Pakistan

latitude: 27-43-19N, longitude: 068-47-31E, altitude: 60 m

Observation

Le bulletin a été fait il y a 24 minutes, à 08:30 UTC
Vent 10 kt de nord-est
Température 26°C
Humidité 45%
Pression 1012 hPa
Visibilité: 4000 m
brume sèche

METAR: OPSK 290830Z 05010KT 4000 HZ NSC 26/13 Q1012 NOSIG

Heure: 13:54 (08:54 UTC)

Prévision

Le bulletin a été fait il y a 5 heures et 24 minutes, à 03:30 UTC
Prévision valable du 29 à 06 UTC au 01 à 06 UTC
Vent 5 kt de nord-est avec des rafales jusqu'à 15 kt
Visibilité: 4000 m
brume sèche
A partir de 29 à 1800 UTC
Vent 8 kt de est/nord-est
Visibilité: 3000 m
brume sèche
Temporairement
du 01 à 00 UTC au 01 à 04 UTC
Vent 6 kt de nord-est
Visibilité: 1500 m
brume

TAF: OPSK 290330Z 2906/0106 05005G15KT 4000 HZ NSC FM291800 06008KT 3000 HZ NSC TEMPO 0100/0104 05006KT 1500 BR NSC

Observations et prévisions météorologiques de plus de 4000 aéroports (messages METAR et TAF).

Les stations disponibles sont représentées par des disques jaunes et rouges sur la carte.

Passer la souris dessus pour voir le nom de la station.

Cliquer dessus pour voir les observations et prévisions météorologiques.

Pour changer de carte: cliquez sur les boutons verts avec une croix noire pour zoomer, sur le bouton vert avec un tiret pour effectuer un zoom arrière, ou sur les flèches vertes pour les cartes adjacentes.


METAR-TAF: